Time;durP1;ratioP1;P1;durP2;ratioP2;P2;SDS_P1;SDS_P2;PMS_P1;PMS_P2;Temp;Humidity;BMP_temperature;BMP_pressure;BME280_temperature;BME280_humidity;BME280_pressure;Samples;Min_cycle;Max_cycle;Signal;HPM_P1;HPM_P2
2023/09/26 00:01:32;;;;;;;5.07;3.90;;;10.30;99.90;;;;;;4977436;28;20181;-63
2023/09/26 00:03:58;;;;;;;9.07;5.00;;;10.30;99.90;;;;;;4977620;28;20185;-62
2023/09/26 00:06:24;;;;;;;5.30;4.80;;;10.30;99.90;;;;;;4977423;28;20185;-62
2023/09/26 00:08:54;;;;;;;6.38;4.50;;;10.40;99.90;;;;;;4976435;28;20200;-62
2023/09/26 00:11:21;;;;;;;7.53;4.75;;;10.40;99.90;;;;;;4977560;28;20176;-62
2023/09/26 00:13:50;;;;;;;8.10;5.22;;;10.50;99.90;;;;;;4977070;28;20292;-62
2023/09/26 00:16:16;;;;;;;7.45;5.32;;;10.50;99.90;;;;;;4977212;28;20244;-62
2023/09/26 00:18:42;;;;;;;7.63;5.63;;;10.40;99.90;;;;;;4977295;28;20677;-62
2023/09/26 00:21:10;;;;;;;8.40;5.03;;;10.50;99.90;;;;;;4975186;28;20701;-62
2023/09/26 00:23:36;;;;;;;7.68;4.97;;;10.40;99.90;;;;;;4975870;28;20638;-62
2023/09/26 00:26:04;;;;;;;6.57;4.97;;;10.30;99.90;;;;;;4976991;28;20197;-62
2023/09/26 00:28:30;;;;;;;5.80;4.80;;;10.30;99.90;;;;;;4976671;28;20700;-62
2023/09/26 00:30:56;;;;;;;6.35;4.50;;;10.20;99.90;;;;;;4977016;28;20177;-62
2023/09/26 00:33:23;;;;;;;7.22;3.97;;;10.20;99.90;;;;;;4977411;28;20274;-62
2023/09/26 00:35:48;;;;;;;12.88;5.22;;;10.10;99.90;;;;;;4976920;28;20251;-62
2023/09/26 00:38:14;;;;;;;9.73;4.55;;;10.10;99.90;;;;;;4977436;28;20219;-62
2023/09/26 00:40:41;;;;;;;5.25;4.40;;;10.00;99.90;;;;;;4975726;28;20594;-62
2023/09/26 00:43:07;;;;;;;6.53;4.28;;;9.90;99.90;;;;;;4976794;28;20208;-62
2023/09/26 00:45:35;;;;;;;9.32;4.57;;;9.90;99.90;;;;;;4975464;28;20173;-62
2023/09/26 00:48:05;;;;;;;4.60;4.07;;;9.90;99.90;;;;;;4976710;28;20181;-69
2023/09/26 00:50:31;;;;;;;5.05;4.53;;;9.90;99.90;;;;;;4976736;28;20185;-62
2023/09/26 00:52:58;;;;;;;5.70;4.32;;;10.00;99.90;;;;;;4976428;28;20223;-63
2023/09/26 00:55:24;;;;;;;7.63;4.97;;;9.90;99.90;;;;;;4975261;28;20192;-62
2023/09/26 00:57:52;;;;;;;8.77;4.80;;;9.90;99.90;;;;;;4976664;28;20169;-62
2023/09/26 01:00:19;;;;;;;4.90;4.30;;;9.90;99.90;;;;;;4976750;28;20727;-62
2023/09/26 01:02:45;;;;;;;5.80;4.67;;;9.90;99.90;;;;;;4976848;28;20645;-61
2023/09/26 01:05:11;;;;;;;8.35;4.60;;;9.90;99.90;;;;;;4975389;28;20184;-62
2023/09/26 01:07:38;;;;;;;6.15;4.70;;;9.80;99.90;;;;;;4976446;28;20178;-62
2023/09/26 01:10:08;;;;;;;5.93;4.77;;;9.80;99.90;;;;;;4975056;28;20201;-62
2023/09/26 01:12:35;;;;;;;6.75;4.60;;;9.80;99.90;;;;;;4975948;28;20552;-63
2023/09/26 01:15:01;;;;;;;10.37;4.93;;;9.70;99.90;;;;;;4976666;28;20176;-62
2023/09/26 01:17:30;;;;;;;5.82;4.80;;;9.70;99.90;;;;;;4976309;28;20174;-62
2023/09/26 01:19:56;;;;;;;7.13;5.13;;;9.70;99.90;;;;;;4976092;28;20185;-62
2023/09/26 01:22:26;;;;;;;7.22;4.95;;;9.80;99.90;;;;;;4975107;28;20623;-62
2023/09/26 01:24:52;;;;;;;6.47;4.78;;;9.80;99.90;;;;;;4976459;28;20273;-66
2023/09/26 01:27:18;;;;;;;9.50;5.22;;;9.80;99.90;;;;;;4976109;28;20193;-62
2023/09/26 01:29:47;;;;;;;7.23;5.00;;;9.90;99.90;;;;;;4976120;28;20200;-64
2023/09/26 01:32:13;;;;;;;8.45;5.70;;;9.80;99.90;;;;;;4975036;28;20645;-62
2023/09/26 01:34:39;;;;;;;10.63;5.65;;;9.80;99.90;;;;;;4976625;28;20201;-62
2023/09/26 01:37:06;;;;;;;14.57;5.55;;;9.80;99.90;;;;;;4977883;28;20184;-62
2023/09/26 01:39:32;;;;;;;6.43;5.43;;;10.00;99.90;;;;;;4975459;28;20208;-61
2023/09/26 01:41:58;;;;;;;7.82;5.88;;;9.90;99.90;;;;;;4976507;28;20173;-62
2023/09/26 01:44:24;;;;;;;7.05;5.72;;;9.90;99.90;;;;;;4976165;28;20184;-61
2023/09/26 01:46:49;;;;;;;6.00;5.20;;;9.80;99.90;;;;;;4976454;28;20205;-63
2023/09/26 01:49:15;;;;;;;7.80;5.50;;;9.70;99.90;;;;;;4976044;28;20224;-62
2023/09/26 01:51:41;;;;;;;6.43;5.13;;;9.60;99.90;;;;;;4975910;28;20263;-62
2023/09/26 01:54:07;;;;;;;8.55;5.10;;;9.60;99.90;;;;;;4976380;28;20283;-62
2023/09/26 01:56:32;;;;;;;6.95;5.47;;;9.60;99.90;;;;;;4976492;28;20283;-62
2023/09/26 01:58:59;;;;;;;7.40;5.47;;;9.50;99.90;;;;;;4975547;28;20189;-62
2023/09/26 02:01:24;;;;;;;7.03;5.88;;;9.50;99.90;;;;;;4975630;28;20645;-62
2023/09/26 02:03:50;;;;;;;10.10;5.90;;;9.50;99.90;;;;;;4975617;28;20181;-62
2023/09/26 02:06:16;;;;;;;9.27;5.90;;;9.50;99.90;;;;;;4975737;28;20264;-62
2023/09/26 02:08:41;;;;;;;8.43;5.50;;;9.50;99.90;;;;;;4975446;28;20205;-62
2023/09/26 02:11:07;;;;;;;5.97;5.25;;;9.50;99.90;;;;;;4975924;28;20630;-64
2023/09/26 02:13:33;;;;;;;8.70;5.50;;;9.40;99.90;;;;;;4975312;28;20204;-62
2023/09/26 02:15:59;;;;;;;6.60;5.32;;;9.50;99.90;;;;;;4975409;28;20261;-62
2023/09/26 02:18:27;;;;;;;8.93;6.00;;;9.40;99.90;;;;;;4975279;28;20196;-61
2023/09/26 02:20:53;;;;;;;7.27;5.60;;;9.40;99.90;;;;;;4975736;28;20256;-62
2023/09/26 02:23:19;;;;;;;10.32;6.18;;;9.50;99.90;;;;;;4974041;28;20308;-62
2023/09/26 02:25:52;;;;;;;7.65;5.95;;;9.50;99.90;;;;;;4975084;28;20681;-62
2023/09/26 02:28:19;;;;;;;8.93;6.40;;;9.50;99.90;;;;;;4974951;28;20209;-62
2023/09/26 02:30:44;;;;;;;8.30;7.03;;;9.50;99.90;;;;;;4975064;28;20177;-62
2023/09/26 02:33:10;;;;;;;9.43;6.47;;;9.40;99.90;;;;;;4975084;28;20271;-62
2023/09/26 02:35:36;;;;;;;10.60;7.03;;;9.40;99.90;;;;;;4975372;28;20638;-62
2023/09/26 02:38:02;;;;;;;10.40;7.40;;;9.40;99.90;;;;;;4973786;28;20606;-61
2023/09/26 02:40:27;;;;;;;8.20;6.57;;;9.40;99.90;;;;;;4973844;28;20177;-62
2023/09/26 02:42:54;;;;;;;8.20;6.80;;;9.50;99.90;;;;;;4974581;28;20173;-62
2023/09/26 02:45:20;;;;;;;10.07;6.38;;;9.50;99.90;;;;;;4974872;28;20177;-62
2023/09/26 02:47:46;;;;;;;8.00;6.60;;;9.50;99.90;;;;;;4974940;28;20236;-62
2023/09/26 02:50:12;;;;;;;7.20;6.50;;;9.50;99.90;;;;;;4974881;28;20260;-62
2023/09/26 02:52:42;;;;;;;7.75;6.40;;;9.40;99.90;;;;;;4974711;28;20646;-62
2023/09/26 02:55:09;;;;;;;9.20;6.37;;;9.30;99.90;;;;;;4974813;28;20177;-62
2023/09/26 02:57:35;;;;;;;8.33;6.67;;;9.30;99.90;;;;;;4974408;28;20177;-61
2023/09/26 03:00:09;;;;;;;6.93;5.97;;;9.30;99.90;;;;;;4975275;28;20239;-62
2023/09/26 03:02:34;;;;;;;8.50;6.00;;;9.30;99.90;;;;;;4974074;28;20173;-62
2023/09/26 03:05:00;;;;;;;7.83;6.23;;;9.30;99.90;;;;;;4975191;28;20196;-62
2023/09/26 03:07:26;;;;;;;8.33;6.73;;;9.20;99.90;;;;;;4975412;28;20176;-62
2023/09/26 03:09:51;;;;;;;7.10;6.40;;;9.20;99.90;;;;;;4975283;28;20192;-62
2023/09/26 03:12:17;;;;;;;8.20;6.17;;;9.20;99.90;;;;;;4975030;28;20176;-62
2023/09/26 03:14:43;;;;;;;8.27;6.28;;;9.20;99.90;;;;;;4973471;28;20576;-62
2023/09/26 03:17:08;;;;;;;6.78;6.07;;;9.10;99.90;;;;;;4975190;28;20177;-62
2023/09/26 03:19:34;;;;;;;6.82;6.13;;;9.10;99.90;;;;;;4975105;28;20207;-62
2023/09/26 03:22:02;;;;;;;7.93;6.32;;;9.10;99.90;;;;;;4975082;28;20177;-62
2023/09/26 03:24:28;;;;;;;7.47;6.43;;;9.10;99.90;;;;;;4975107;28;20185;-62
2023/09/26 03:26:53;;;;;;;8.93;6.13;;;9.10;99.90;;;;;;4974889;28;20620;-62
2023/09/26 03:29:19;;;;;;;7.68;6.20;;;9.10;99.90;;;;;;4974375;28;20201;-62
2023/09/26 03:31:45;;;;;;;8.57;6.53;;;9.10;99.90;;;;;;4974647;28;20177;-62
2023/09/26 03:34:11;;;;;;;8.33;6.20;;;9.10;99.90;;;;;;4974661;28;20634;-62
2023/09/26 03:36:37;;;;;;;8.70;6.78;;;9.00;99.90;;;;;;4974563;28;20197;-62
2023/09/26 03:39:03;;;;;;;8.82;6.80;;;8.90;99.90;;;;;;4973241;28;20193;-62
2023/09/26 03:41:32;;;;;;;8.50;5.80;;;8.90;99.90;;;;;;4974488;28;20165;-62
2023/09/26 03:43:57;;;;;;;7.37;6.20;;;9.00;99.90;;;;;;4974468;28;20173;-62
2023/09/26 03:46:23;;;;;;;7.95;6.50;;;9.00;99.90;;;;;;4974693;28;20177;-58
2023/09/26 03:48:49;;;;;;;9.13;6.20;;;8.90;99.90;;;;;;4973342;28;20260;-63
2023/09/26 03:51:15;;;;;;;6.47;5.78;;;8.80;99.90;;;;;;4974509;28;20181;-62
2023/09/26 03:53:42;;;;;;;12.30;7.00;;;8.70;99.90;;;;;;4974333;28;20201;-62
2023/09/26 03:56:08;;;;;;;6.77;6.07;;;8.60;99.90;;;;;;4976224;28;20180;-62
2023/09/26 03:58:35;;;;;;;8.57;6.53;;;8.60;99.90;;;;;;4977463;28;20228;-66
2023/09/26 04:01:15;;;;;;;7.03;5.93;;;8.60;99.90;;;;;;4976811;28;20596;-63
2023/09/26 04:03:45;;;;;;;8.73;6.15;;;8.60;99.90;;;;;;4977891;28;20622;-62
2023/09/26 04:06:11;;;;;;;8.57;6.00;;;8.60;99.90;;;;;;4977693;28;20169;-62
2023/09/26 04:08:37;;;;;;;7.93;6.30;;;8.60;99.90;;;;;;4977668;28;20247;-62
2023/09/26 04:11:03;;;;;;;8.80;6.97;;;8.60;99.90;;;;;;4977855;28;20196;-62
2023/09/26 04:13:28;;;;;;;6.97;6.27;;;8.60;99.90;;;;;;4977160;28;20231;-62
2023/09/26 04:15:54;;;;;;;7.40;6.40;;;8.60;99.90;;;;;;4976325;28;20212;-62
2023/09/26 04:18:22;;;;;;;10.07;7.03;;;8.50;99.90;;;;;;4977463;28;20169;-62
2023/09/26 04:20:50;;;;;;;7.18;6.45;;;8.50;99.90;;;;;;4977515;28;20260;-62
2023/09/26 04:23:15;;;;;;;8.15;6.88;;;8.50;99.90;;;;;;4976104;28;20662;-62
2023/09/26 04:25:41;;;;;;;7.50;6.70;;;8.60;99.90;;;;;;4977380;28;20196;-62
2023/09/26 04:28:07;;;;;;;12.10;7.13;;;8.60;99.90;;;;;;4976913;28;20661;-62
2023/09/26 04:30:40;;;;;;;8.80;6.67;;;8.50;99.90;;;;;;4977128;28;20535;-62
2023/09/26 04:33:07;;;;;;;10.33;6.97;;;8.60;99.90;;;;;;4977074;28;20661;-62
2023/09/26 04:35:33;;;;;;;9.47;6.70;;;8.60;99.90;;;;;;4977021;28;20200;-62
2023/09/26 04:37:59;;;;;;;8.03;6.80;;;8.50;99.90;;;;;;4977046;28;20205;-62
2023/09/26 04:40:25;;;;;;;10.10;7.40;;;8.50;99.90;;;;;;4976990;28;20193;-62
2023/09/26 04:42:51;;;;;;;10.10;7.57;;;8.50;99.90;;;;;;4976652;28;20592;-61
2023/09/26 04:45:17;;;;;;;10.47;7.93;;;8.50;99.90;;;;;;4976896;28;20200;-62
2023/09/26 04:47:43;;;;;;;10.87;8.23;;;8.50;99.90;;;;;;4976771;28;20251;-62
2023/09/26 04:50:09;;;;;;;11.37;8.03;;;8.50;99.90;;;;;;4976718;28;20344;-62
2023/09/26 04:52:36;;;;;;;9.97;8.10;;;8.50;99.90;;;;;;4976540;28;20188;-62
2023/09/26 04:55:02;;;;;;;10.50;8.20;;;8.50;99.90;;;;;;4975547;28;20181;-62
2023/09/26 04:57:28;;;;;;;11.33;8.23;;;8.50;99.90;;;;;;4975243;28;20177;-63
2023/09/26 04:59:54;;;;;;;10.17;8.60;;;8.60;99.90;;;;;;4975071;28;20248;-62
2023/09/26 05:02:20;;;;;;;10.73;9.13;;;8.50;99.90;;;;;;4976386;28;20252;-62
2023/09/26 05:04:48;;;;;;;10.87;8.10;;;8.50;99.90;;;;;;4976329;28;20205;-62
2023/09/26 05:07:14;;;;;;;10.77;7.57;;;8.50;99.90;;;;;;4975085;28;20181;-62
2023/09/26 05:09:40;;;;;;;8.53;7.23;;;8.50;99.90;;;;;;4976543;28;20256;-62
2023/09/26 05:12:06;;;;;;;15.80;8.20;;;8.40;99.90;;;;;;4976471;28;20224;-62
2023/09/26 05:14:32;;;;;;;9.50;8.47;;;8.40;99.90;;;;;;4976039;28;20201;-62
2023/09/26 05:16:58;;;;;;;9.50;7.63;;;8.40;99.90;;;;;;4977139;28;20210;-62
2023/09/26 05:19:24;;;;;;;11.10;8.40;;;8.40;99.90;;;;;;4976942;28;20221;-62
2023/09/26 05:21:50;;;;;;;10.73;8.33;;;8.30;99.90;;;;;;4977017;28;20540;-62
2023/09/26 05:24:15;;;;;;;11.87;8.53;;;8.30;99.90;;;;;;4976357;28;20675;-62
2023/09/26 05:26:41;;;;;;;11.03;8.30;;;8.40;99.90;;;;;;4976774;28;20223;-62
2023/09/26 05:29:07;;;;;;;10.03;8.67;;;8.40;99.90;;;;;;4976499;28;20231;-62
2023/09/26 05:31:33;;;;;;;13.43;8.80;;;8.50;99.90;;;;;;4976633;28;20575;-62
2023/09/26 05:33:59;;;;;;;12.77;8.73;;;8.40;99.90;;;;;;4976416;28;20332;-62
2023/09/26 05:36:25;;;;;;;9.73;8.00;;;8.40;99.90;;;;;;4975253;28;20217;-62
2023/09/26 05:38:51;;;;;;;9.47;7.83;;;8.30;99.90;;;;;;4976525;28;20281;-62
2023/09/26 05:41:17;;;;;;;10.53;8.50;;;8.30;99.90;;;;;;4975945;28;20664;-62
2023/09/26 05:43:43;;;;;;;10.87;8.40;;;8.30;99.90;;;;;;4975952;28;20196;-62
2023/09/26 05:46:09;;;;;;;8.80;7.90;;;8.20;99.90;;;;;;4976057;28;20179;-62
2023/09/26 05:48:36;;;;;;;13.47;8.10;;;8.20;99.90;;;;;;4975718;28;20585;-62
2023/09/26 05:51:05;;;;;;;11.10;8.00;;;8.30;99.90;;;;;;4975837;28;20187;-62
2023/09/26 05:53:31;;;;;;;11.07;8.00;;;8.30;99.90;;;;;;4975479;28;20338;-62
2023/09/26 05:55:58;;;;;;;11.57;8.07;;;8.30;99.90;;;;;;4975878;28;20173;-62
2023/09/26 05:58:24;;;;;;;9.63;7.87;;;8.30;99.90;;;;;;4973816;28;20996;-61
2023/09/26 06:00:53;;;;;;;10.67;7.70;;;8.40;99.90;;;;;;4975544;28;20169;-62
2023/09/26 06:03:19;;;;;;;8.33;7.43;;;8.50;99.90;;;;;;4975271;28;20256;-62
2023/09/26 06:05:45;;;;;;;8.57;7.53;;;8.50;99.90;;;;;;4975259;28;20232;-62
2023/09/26 06:08:11;;;;;;;8.57;7.40;;;8.50;99.90;;;;;;4975111;28;20212;-61
2023/09/26 06:10:36;;;;;;;10.10;8.10;;;8.60;99.90;;;;;;4973902;28;20185;-62
2023/09/26 06:13:02;;;;;;;11.77;8.50;;;8.60;99.90;;;;;;4973875;28;20219;-61
2023/09/26 06:15:28;;;;;;;11.57;8.03;;;8.70;99.90;;;;;;4973598;28;20193;-62
2023/09/26 06:17:59;;;;;;;11.07;8.50;;;8.80;99.90;;;;;;4974512;28;20173;-62
2023/09/26 06:20:27;;;;;;;9.37;8.37;;;8.80;99.90;;;;;;4974909;28;20578;-61
2023/09/26 06:22:53;;;;;;;8.60;7.67;;;9.00;99.90;;;;;;4974926;28;20193;-61
2023/09/26 06:25:22;;;;;;;9.70;8.20;;;9.00;99.90;;;;;;4973520;28;20203;-61
2023/09/26 06:27:48;;;;;;;9.98;7.75;;;9.10;99.90;;;;;;4975343;28;20173;-61
2023/09/26 06:30:14;;;;;;;9.70;8.50;;;9.30;99.90;;;;;;4974472;28;20197;-61
2023/09/26 06:32:40;;;;;;;9.00;8.03;;;9.30;99.90;;;;;;4974909;28;20301;-61
2023/09/26 06:35:06;;;;;;;10.77;8.60;;;9.40;99.90;;;;;;4975095;28;20172;-61
2023/09/26 06:37:33;;;;;;;11.77;8.55;;;9.50;99.90;;;;;;4975041;28;20310;-61
2023/09/26 06:40:04;;;;;;;14.10;8.35;;;9.70;99.90;;;;;;4974628;28;20192;-61
2023/09/26 06:42:31;;;;;;;11.07;9.18;;;9.80;99.90;;;;;;4974849;28;20177;-61
2023/09/26 06:44:57;;;;;;;11.47;9.87;;;10.00;99.90;;;;;;4974519;28;20181;-61
2023/09/26 06:47:25;;;;;;;9.60;8.60;;;10.10;99.90;;;;;;4974711;28;20260;-61
2023/09/26 06:49:52;;;;;;;11.18;9.05;;;10.30;99.90;;;;;;4974697;28;20276;-61
2023/09/26 06:52:18;;;;;;;11.50;9.30;;;10.30;99.90;;;;;;5000179;28;20189;-62
2023/09/26 06:54:44;;;;;;;13.75;10.20;;;10.60;99.90;;;;;;4974893;28;20201;-62
2023/09/26 06:57:10;;;;;;;11.32;9.68;;;10.70;99.90;;;;;;4974742;28;20646;-62
2023/09/26 06:59:36;;;;;;;10.05;8.27;;;10.80;99.90;;;;;;4989423;28;20250;-61
2023/09/26 07:02:02;;;;;;;13.63;9.63;;;10.90;99.90;;;;;;4975316;28;20208;-62
2023/09/26 07:04:28;;;;;;;10.75;8.30;;;10.90;99.90;;;;;;4974981;28;20173;-62
2023/09/26 07:06:54;;;;;;;11.32;9.40;;;11.00;99.90;;;;;;4974677;28;20192;-61
2023/09/26 07:09:20;;;;;;;13.80;9.55;;;11.00;99.90;;;;;;4975085;28;20193;-61
2023/09/26 07:11:49;;;;;;;13.07;9.68;;;11.10;99.90;;;;;;4973353;28;20188;-62
2023/09/26 07:14:16;;;;;;;13.05;9.57;;;11.20;99.90;;;;;;4974377;28;20231;-61
2023/09/26 07:16:41;;;;;;;11.35;9.45;;;11.30;99.90;;;;;;4974963;28;20177;-61
2023/09/26 07:19:07;;;;;;;13.63;9.23;;;11.40;99.90;;;;;;4974700;28;20264;-62
2023/09/26 07:21:33;;;;;;;14.57;9.43;;;11.60;99.90;;;;;;4974759;28;20173;-61
2023/09/26 07:23:59;;;;;;;12.38;9.98;;;11.70;99.90;;;;;;4974760;28;20177;-61
2023/09/26 07:26:26;;;;;;;13.50;9.60;;;11.80;99.90;;;;;;4974859;28;20217;-62
2023/09/26 07:28:51;;;;;;;14.35;9.57;;;12.00;99.90;;;;;;4974331;28;20193;-61
2023/09/26 07:31:18;;;;;;;11.35;10.15;;;12.20;99.90;;;;;;4978481;28;20264;-61
2023/09/26 07:33:45;;;;;;;12.07;9.55;;;12.30;99.90;;;;;;4978567;28;20197;-61
2023/09/26 07:36:12;;;;;;;9.80;8.73;;;12.50;99.90;;;;;;4978507;28;20176;-62
2023/09/26 07:38:38;;;;;;;10.40;8.05;;;12.60;99.90;;;;;;4978312;28;20193;-62
2023/09/26 07:41:04;;;;;;;9.82;8.57;;;12.70;99.90;;;;;;4977020;28;20177;-62
2023/09/26 07:43:32;;;;;;;12.30;8.70;;;12.90;99.90;;;;;;4978484;28;20177;-61
2023/09/26 07:46:18;;;;;;;11.27;9.02;;;13.10;99.90;;;;;;4977215;28;20271;-62
2023/09/26 07:48:44;;;;;;;10.95;7.93;;;13.30;99.90;;;;;;4978357;28;20550;-62
2023/09/26 07:51:11;;;;;;;11.20;8.25;;;13.50;99.90;;;;;;4978761;28;20185;-62
2023/09/26 07:53:37;;;;;;;14.02;8.70;;;13.70;99.90;;;;;;4978273;28;20201;-62
2023/09/26 07:56:03;;;;;;;14.68;8.88;;;13.90;99.90;;;;;;4978370;28;20709;-62
2023/09/26 07:58:28;;;;;;;10.90;8.20;;;14.20;99.90;;;;;;4977677;28;20220;-61
2023/09/26 08:00:58;;;;;;;9.75;8.30;;;14.30;99.90;;;;;;4976636;28;20559;-62
2023/09/26 08:03:24;;;;;;;10.40;7.57;;;14.50;99.90;;;;;;4976511;28;20184;-62
2023/09/26 08:05:58;;;;;;;12.02;7.38;;;14.60;99.90;;;;;;4977915;28;20218;-62
2023/09/26 08:08:24;;;;;;;12.10;7.72;;;14.70;99.90;;;;;;4977501;28;20211;-62
2023/09/26 08:10:50;;;;;;;9.23;7.13;;;14.90;99.90;;;;;;4977536;28;20523;-62
2023/09/26 08:13:15;;;;;;;9.70;7.05;;;15.10;99.90;;;;;;4977248;28;20260;-62
2023/09/26 08:15:41;;;;;;;12.68;7.60;;;15.20;99.90;;;;;;4975757;28;20184;-62
2023/09/26 08:18:07;;;;;;;11.95;7.53;;;15.30;99.90;;;;;;4976041;28;20204;-62
2023/09/26 08:20:32;;;;;;;11.73;7.65;;;15.50;99.90;;;;;;4975981;28;20180;-62
2023/09/26 08:22:58;;;;;;;13.75;8.18;;;15.60;99.90;;;;;;4975757;28;20185;-62
2023/09/26 08:25:25;;;;;;;10.32;7.32;;;15.80;99.90;;;;;;4976971;28;20200;-62
2023/09/26 08:27:51;;;;;;;9.00;6.85;;;15.90;99.90;;;;;;4977302;28;20185;-62
2023/09/26 08:30:17;;;;;;;13.73;7.00;;;16.10;99.90;;;;;;4976708;28;20224;-62
2023/09/26 08:32:43;;;;;;;9.13;7.18;;;16.20;99.90;;;;;;4976727;28;20188;-62
2023/09/26 08:35:10;;;;;;;9.05;6.75;;;16.30;99.90;;;;;;4977002;28;20170;-62
2023/09/26 08:37:42;;;;;;;11.70;6.88;;;16.40;99.90;;;;;;4976718;28;20178;-62
2023/09/26 08:40:11;;;;;;;12.48;6.88;;;16.60;99.90;;;;;;4975393;28;20208;-62
2023/09/26 08:42:46;;;;;;;9.30;6.05;;;16.70;99.90;;;;;;4976064;28;20209;-62
2023/09/26 08:45:12;;;;;;;8.85;6.18;;;16.80;99.90;;;;;;4976597;28;20200;-62
2023/09/26 08:47:43;;;;;;;8.95;6.22;;;17.00;99.90;;;;;;4976661;28;20173;-62
2023/09/26 08:50:09;;;;;;;8.57;6.18;;;17.20;99.90;;;;;;4976622;28;20193;-62
2023/09/26 08:52:36;;;;;;;7.65;6.38;;;17.30;99.90;;;;;;4976507;28;20260;-62
2023/09/26 08:55:03;;;;;;;10.77;5.90;;;17.60;99.90;;;;;;4976490;28;20187;-62
2023/09/26 08:57:32;;;;;;;7.82;5.30;;;17.80;99.90;;;;;;4976728;28;20261;-62
2023/09/26 09:00:01;;;;;;;5.90;4.85;;;18.30;99.90;;;;;;4974818;28;20201;-62
2023/09/26 09:02:27;;;;;;;5.65;4.47;;;18.60;99.90;;;;;;4976642;28;20519;-62
2023/09/26 09:04:53;;;;;;;7.18;5.05;;;18.60;99.90;;;;;;4975019;28;20185;-62
2023/09/26 09:07:19;;;;;;;6.53;3.90;;;18.80;99.90;;;;;;4976334;28;20193;-62
2023/09/26 09:10:07;;;;;;;5.88;4.60;;;18.90;99.90;;;;;;4976191;28;20208;-62
2023/09/26 09:12:34;;;;;;;7.05;4.15;;;18.90;99.90;;;;;;4976110;28;20179;-62
2023/09/26 09:15:00;;;;;;;5.72;4.40;;;18.90;99.90;;;;;;4975830;28;20208;-62
2023/09/26 09:17:26;;;;;;;6.97;4.57;;;18.90;99.90;;;;;;4976056;28;20256;-62
2023/09/26 09:19:53;;;;;;;9.25;4.68;;;19.10;99.90;;;;;;4975935;28;20281;-62
2023/09/26 09:22:22;;;;;;;6.10;4.43;;;19.30;99.90;;;;;;4974586;28;20185;-62
2023/09/26 09:24:56;;;;;;;7.82;4.43;;;19.30;99.90;;;;;;4976042;28;20212;-63
2023/09/26 09:27:32;;;;;;;7.40;4.20;;;19.30;99.90;;;;;;4976193;28;20626;-62
2023/09/26 09:30:11;;;;;;;4.88;3.95;;;19.40;99.90;;;;;;4975617;28;20201;-62
2023/09/26 09:32:43;;;;;;;4.15;3.75;;;19.50;99.90;;;;;;4975845;28;20161;-63
2023/09/26 09:35:10;;;;;;;8.38;4.47;;;19.60;99.90;;;;;;4975733;28;20170;-63
2023/09/26 09:37:37;;;;;;;6.22;3.92;;;19.70;99.90;;;;;;4975631;28;20177;-62
2023/09/26 09:40:05;;;;;;;7.63;5.05;;;19.70;99.90;;;;;;4974374;28;20225;-62
2023/09/26 09:42:32;;;;;;;9.73;4.00;;;19.70;99.90;;;;;;4975901;28;20598;-63
2023/09/26 09:44:59;;;;;;;4.10;3.50;;;19.70;99.90;;;;;;4975422;28;20173;-61
2023/09/26 09:47:28;;;;;;;5.75;3.70;;;19.70;99.90;;;;;;4975536;28;20197;-62
2023/09/26 09:49:54;;;;;;;6.07;3.83;;;19.70;99.90;;;;;;4976010;28;20197;-62
2023/09/26 09:52:21;;;;;;;5.50;3.72;;;19.60;99.90;;;;;;4975292;28;20545;-62
2023/09/26 09:54:48;;;;;;;6.05;4.00;;;19.70;99.90;;;;;;4974991;28;20204;-62
2023/09/26 09:57:16;;;;;;;5.32;3.85;;;19.70;99.90;;;;;;4974088;28;20177;-63
2023/09/26 09:59:44;;;;;;;4.38;3.97;;;19.70;99.90;;;;;;4975143;28;20185;-62
2023/09/26 10:02:16;;;;;;;5.60;3.70;;;19.70;99.90;;;;;;4975964;28;20532;-59
2023/09/26 10:04:44;;;;;;;5.28;3.20;;;19.70;99.90;;;;;;4975529;28;20157;-60
2023/09/26 10:07:12;;;;;;;6.60;4.05;;;19.70;99.90;;;;;;4973960;28;20271;-60
2023/09/26 10:09:39;;;;;;;5.25;3.85;;;19.70;99.90;;;;;;4975325;28;20669;-61
2023/09/26 10:12:06;;;;;;;6.20;3.70;;;19.70;99.90;;;;;;4975086;28;20716;-61
2023/09/26 10:14:32;;;;;;;5.43;3.88;;;19.80;99.90;;;;;;4974761;28;20209;-61
2023/09/26 10:16:59;;;;;;;6.32;3.72;;;19.80;99.90;;;;;;4975082;28;20201;-62
2023/09/26 10:19:28;;;;;;;8.25;3.58;;;19.90;99.90;;;;;;4975021;28;20224;-60
2023/09/26 10:22:15;;;;;;;4.40;3.55;;;20.00;99.90;;;;;;4975021;28;20228;-60
2023/09/26 10:24:52;;;;;;;5.38;3.60;;;20.10;99.90;;;;;;4974786;28;20240;-60
2023/09/26 10:27:36;;;;;;;4.90;3.55;;;20.10;99.90;;;;;;4974875;28;20231;-60
2023/09/26 10:30:02;;;;;;;4.50;3.33;;;20.20;99.90;;;;;;4974618;28;20619;-61
2023/09/26 10:32:37;;;;;;;3.88;3.40;;;20.30;99.90;;;;;;4974833;28;20185;-61
2023/09/26 10:35:24;;;;;;;4.15;3.15;;;20.30;99.90;;;;;;4974999;28;20216;-61
2023/09/26 10:37:55;;;;;;;4.20;3.28;;;20.50;99.90;;;;;;4974781;28;20164;-61
2023/09/26 10:40:22;;;;;;;5.63;3.10;;;20.60;99.90;;;;;;4974625;28;20203;-61
2023/09/26 10:42:49;;;;;;;4.80;3.70;;;20.70;99.90;;;;;;4974719;28;20201;-61
2023/09/26 10:45:17;;;;;;;5.07;3.45;;;20.80;99.90;;;;;;4973211;28;20224;-60
2023/09/26 10:47:44;;;;;;;4.82;3.10;;;21.00;99.90;;;;;;4974650;28;20254;-60
2023/09/26 10:50:14;;;;;;;3.80;3.00;;;21.10;99.90;;;;;;4974480;28;20201;-61
2023/09/26 10:52:46;;;;;;;4.30;2.88;;;21.20;99.90;;;;;;4974616;28;20181;-62
2023/09/26 10:55:22;;;;;;;4.40;3.03;;;21.40;99.90;;;;;;4973278;28;20196;-63
2023/09/26 10:57:51;;;;;;;3.80;2.67;;;21.50;99.90;;;;;;4974524;28;20712;-63
2023/09/26 11:00:17;;;;;;;4.80;3.03;;;21.60;99.90;;;;;;4974324;28;20221;-63
2023/09/26 11:02:47;;;;;;;4.78;3.00;;;21.90;99.90;;;;;;4974652;28;20176;-62
2023/09/26 11:05:15;;;;;;;4.05;2.88;;;22.00;99.90;;;;;;4976623;28;20153;-62
2023/09/26 11:07:42;;;;;;;3.40;2.80;;;22.00;99.90;;;;;;4979017;28;20157;-63
2023/09/26 11:10:13;;;;;;;3.25;2.60;;;22.20;99.90;;;;;;4978440;28;20559;-62
2023/09/26 11:12:43;;;;;;;3.08;2.78;;;22.10;99.90;;;;;;4979031;28;20613;-63
2023/09/26 11:15:10;;;;;;;3.88;2.85;;;22.30;99.90;;;;;;4978252;28;20606;-62
2023/09/26 11:17:37;;;;;;;3.88;2.67;;;22.40;99.90;;;;;;4978548;28;20181;-63
2023/09/26 11:20:05;;;;;;;2.88;2.58;;;22.60;99.90;;;;;;4978142;28;20193;-63
2023/09/26 11:22:46;;;;;;;3.15;2.60;;;22.80;99.90;;;;;;4978057;28;20185;-63
2023/09/26 11:25:12;;;;;;;3.67;2.70;;;23.10;99.90;;;;;;4978110;28;20275;-63
2023/09/26 11:27:44;;;;;;;3.55;2.67;;;23.20;99.90;;;;;;4978107;28;20182;-63
2023/09/26 11:30:14;;;;;;;2.63;2.33;;;23.20;99.90;;;;;;4977941;28;20208;-62
2023/09/26 11:32:42;;;;;;;14.00;2.75;;;23.30;99.90;;;;;;4977152;28;20271;-62
2023/09/26 11:35:09;;;;;;;3.00;2.40;;;23.40;99.90;;;;;;4976746;28;20184;-62
2023/09/26 11:37:37;;;;;;;3.70;2.25;;;23.50;99.90;;;;;;4976671;28;20681;-63
2023/09/26 11:40:06;;;;;;;2.63;2.35;;;23.60;99.90;;;;;;4977890;28;20193;-62
2023/09/26 11:42:41;;;;;;;3.05;2.30;;;23.70;99.90;;;;;;4977902;28;20188;-63
2023/09/26 11:45:08;;;;;;;2.53;2.33;;;23.80;99.90;;;;;;4977712;28;20165;-62
2023/09/26 11:47:34;;;;;;;5.03;2.15;;;24.00;99.90;;;;;;4978151;28;20303;-62
2023/09/26 11:50:00;;;;;;;2.00;1.90;;;24.00;99.90;;;;;;4977765;28;20197;-62
2023/09/26 11:52:26;;;;;;;5.03;2.30;;;24.00;99.90;;;;;;4976404;28;20193;-63
2023/09/26 11:54:52;;;;;;;2.53;2.10;;;24.20;99.90;;;;;;4977797;28;20296;-63
2023/09/26 11:57:18;;;;;;;3.30;2.47;;;24.30;99.90;;;;;;4978059;28;20527;-63
2023/09/26 11:59:44;;;;;;;3.58;2.28;;;24.40;99.90;;;;;;4977768;28;20248;-63
2023/09/26 12:02:11;;;;;;;4.13;2.30;;;24.60;99.90;;;;;;4977661;28;20630;-62
2023/09/26 12:04:36;;;;;;;2.47;2.20;;;24.50;99.90;;;;;;4978150;28;20658;-62
2023/09/26 12:07:03;;;;;;;4.60;2.35;;;24.30;99.90;;;;;;4977738;28;20181;-63
2023/09/26 12:09:29;;;;;;;2.58;2.20;;;24.30;99.90;;;;;;4977541;28;20197;-62
2023/09/26 12:11:55;;;;;;;4.32;2.30;;;24.30;99.90;;;;;;4977394;28;20192;-62
2023/09/26 12:14:21;;;;;;;3.45;2.58;;;24.00;99.90;;;;;;4977216;28;20219;-61
2023/09/26 12:16:51;;;;;;;2.25;2.05;;;23.80;99.90;;;;;;4976296;28;20324;-62
2023/09/26 12:19:21;;;;;;;2.72;2.45;;;23.90;99.90;;;;;;4977086;28;20189;-62
2023/09/26 12:21:48;;;;;;;3.75;2.03;;;24.10;99.90;;;;;;4977270;28;20186;-62
2023/09/26 12:24:15;;;;;;;2.30;2.10;;;24.20;99.90;;;;;;4977071;28;20260;-63
2023/09/26 12:26:41;;;;;;;4.78;2.28;;;24.40;99.90;;;;;;4977412;28;20161;-63
2023/09/26 12:29:09;;;;;;;2.35;2.13;;;24.60;99.90;;;;;;4976946;28;20280;-62
2023/09/26 12:31:35;;;;;;;3.80;2.30;;;24.60;99.90;;;;;;4976782;28;20184;-62
2023/09/26 12:34:02;;;;;;;3.30;2.30;;;24.80;99.90;;;;;;4991800;28;20208;-63
2023/09/26 12:36:29;;;;;;;3.30;2.20;;;24.70;99.90;;;;;;4976884;28;20177;-63
2023/09/26 12:38:57;;;;;;;4.40;2.55;;;24.80;99.90;;;;;;4976742;28;20220;-62
2023/09/26 12:41:25;;;;;;;2.42;2.22;;;24.80;99.90;;;;;;4991759;28;20177;-63
2023/09/26 12:43:52;;;;;;;3.15;2.10;;;24.90;99.90;;;;;;4976706;28;20611;-62
2023/09/26 12:46:19;;;;;;;2.67;2.13;;;24.80;99.90;;;;;;4976422;28;20634;-62
2023/09/26 12:48:45;;;;;;;2.22;1.95;;;25.00;99.90;;;;;;4991428;28;20209;-63